Time;durP1;ratioP1;P1;durP2;ratioP2;P2;SDS_P1;SDS_P2;PMS_P1;PMS_P2;Temp;Humidity;BMP_temperature;BMP_pressure;BME280_temperature;BME280_humidity;BME280_pressure;Samples;Min_cycle;Max_cycle;Signal;HPM_P1;HPM_P2
2022/01/12 00:01:42;;;;;;;22.42;10.52;;;;;;;-2.86;80.05;101771.84;5054762;28;20055;-71
2022/01/12 00:04:10;;;;;;;21.05;10.23;;;;;;;-3.00;81.04;101766.34;5055080;28;20049;-72
2022/01/12 00:06:39;;;;;;;18.98;10.00;;;;;;;-3.06;81.00;101763.63;5054641;28;20512;-70
2022/01/12 00:09:08;;;;;;;20.20;10.27;;;;;;;-3.19;81.91;101762.50;5054570;28;20559;-71
2022/01/12 00:11:37;;;;;;;22.67;10.60;;;;;;;-3.31;82.84;101767.47;5054350;28;20048;-70
2022/01/12 00:14:06;;;;;;;22.00;10.70;;;;;;;-3.37;83.18;101769.97;5055015;28;20051;-72
2022/01/12 00:16:35;;;;;;;21.52;10.30;;;;;;;-3.34;83.32;101768.28;5054557;28;20044;-71
2022/01/12 00:19:03;;;;;;;20.42;10.20;;;;;;;-3.27;82.92;101769.31;5054590;28;20041;-72
2022/01/12 00:21:31;;;;;;;19.08;9.27;;;;;;;-3.37;83.62;101767.38;5054439;28;20045;-72
2022/01/12 00:24:00;;;;;;;18.45;9.60;;;;;;;-3.46;84.28;101763.72;5054845;28;20041;-71
2022/01/12 00:26:42;;;;;;;20.13;9.57;;;;;;;-3.57;84.98;101770.44;5054379;28;20052;-70
2022/01/12 00:34:42;;;;;;;18.98;8.98;;;;;;;-3.02;82.24;101771.53;5053901;28;20387;-71
2022/01/12 00:37:10;;;;;;;19.38;9.32;;;;;;;-2.83;80.32;101775.38;5054461;28;20072;-71
2022/01/12 00:39:39;;;;;;;20.38;8.98;;;;;;;-2.94;81.23;101785.63;5054129;28;20041;-72
2022/01/12 00:42:11;;;;;;;16.33;8.13;;;;;;;-3.01;81.38;101788.97;5054491;28;20099;-70
2022/01/12 00:44:45;;;;;;;19.73;9.40;;;;;;;-3.12;81.91;101787.88;5054029;28;20063;-71
2022/01/12 00:47:13;;;;;;;18.63;8.85;;;;;;;-3.03;82.11;101790.66;5054282;28;20045;-71
2022/01/12 00:49:42;;;;;;;18.40;9.30;;;;;;;-3.14;82.54;101786.97;5053890;28;20095;-71
2022/01/12 00:52:10;;;;;;;18.13;9.40;;;;;;;-3.25;82.95;101788.47;5054151;28;20049;-72
2022/01/12 00:54:39;;;;;;;17.65;8.70;;;;;;;-3.35;83.91;101791.75;5035873;28;20102;-71
2022/01/12 00:57:07;;;;;;;17.15;8.90;;;;;;;-3.38;84.26;101794.28;5054350;28;20072;-72
2022/01/12 00:59:36;;;;;;;19.00;9.23;;;;;;;-3.37;83.70;101803.91;5053729;28;20045;-70
2022/01/12 01:02:06;;;;;;;19.75;9.30;;;;;;;-3.35;83.41;101802.19;5054090;28;20532;-71
2022/01/12 01:04:34;;;;;;;22.58;9.23;;;;;;;-3.22;83.14;101799.84;5053607;28;20045;-73
2022/01/12 01:07:02;;;;;;;20.05;8.75;;;;;;;-3.29;82.26;101797.97;5053563;28;20067;-71
2022/01/12 01:09:33;;;;;;;18.33;8.82;;;;;;;-3.35;83.69;101791.75;5052883;28;20469;-76
2022/01/12 01:12:01;;;;;;;19.05;9.18;;;;;;;-3.48;84.16;101791.47;5054018;28;20048;-72
2022/01/12 01:14:44;;;;;;;18.73;8.80;;;;;;;-3.53;85.65;101793.13;5053751;28;20394;-73
2022/01/12 01:25:32;;;;;;;18.35;9.45;;;;;;;-3.62;85.83;101795.53;5053603;28;20051;-72
2022/01/12 01:28:01;;;;;;;19.48;10.05;;;;;;;-3.76;86.19;101790.00;5053147;28;20083;-72
2022/01/12 01:30:30;;;;;;;16.17;9.23;;;;;;;-3.69;86.12;101797.94;5053423;28;20044;-72
2022/01/12 01:33:05;;;;;;;18.58;9.02;;;;;;;-3.67;86.14;101797.13;5053368;28;20052;-71
2022/01/12 01:35:35;;;;;;;19.92;10.00;;;;;;;-3.54;85.21;101809.63;5053074;28;20065;-76
2022/01/12 01:38:05;;;;;;;21.23;9.80;;;;;;;-3.77;86.97;101809.09;5053375;28;20045;-71
2022/01/12 01:40:37;;;;;;;18.38;10.00;;;;;;;-3.85;87.89;101807.16;5052953;28;20096;-75
2022/01/12 01:43:17;;;;;;;21.60;10.27;;;;;;;-3.68;87.35;101807.53;5053525;28;20037;-70
2022/01/12 01:54:07;;;;;;;21.02;10.15;;;;;;;-3.96;88.40;101817.31;5053456;28;20383;-70
2022/01/12 01:56:36;;;;;;;20.58;9.82;;;;;;;-4.04;88.82;101818.88;5052832;28;20041;-73
2022/01/12 01:59:05;;;;;;;18.25;8.90;;;;;;;-4.06;89.66;101815.34;5053212;28;20106;-70
2022/01/12 02:01:33;;;;;;;21.25;9.68;;;;;;;-3.99;88.93;101813.78;5053055;28;20045;-70
2022/01/12 02:04:05;;;;;;;21.73;9.45;;;;;;;-4.00;89.08;101820.72;5052727;28;20500;-72
2022/01/12 02:06:33;;;;;;;22.00;9.73;;;;;;;-4.12;89.58;101818.69;5053105;28;20107;-72
2022/01/12 02:09:01;;;;;;;19.98;9.20;;;;;;;-4.15;91.06;101825.53;5052596;28;20045;-70
2022/01/12 02:11:30;;;;;;;18.20;9.90;;;;;;;-4.17;91.27;101816.81;5052683;28;20405;-71
2022/01/12 02:13:59;;;;;;;20.77;9.43;;;;;;;-4.16;91.81;101824.66;5052658;28;20037;-71
2022/01/12 02:16:33;;;;;;;21.33;9.75;;;;;;;-4.17;91.47;101819.41;5052906;28;20037;-70
2022/01/12 02:19:18;;;;;;;23.38;10.52;;;;;;;-4.25;92.59;101832.25;5052992;28;20103;-70
2022/01/12 02:35:46;;;;;;;18.05;9.10;;;;;;;-4.07;92.33;101830.09;5056853;28;20041;-72
2022/01/12 02:41:04;;;;;;;19.48;9.50;;;;;;;-4.24;93.60;101822.72;5038782;28;20057;-71
2022/01/12 02:54:27;;;;;;;18.52;9.20;;;;;;;-4.17;93.96;101822.03;5055591;28;20045;-72
2022/01/12 02:56:55;;;;;;;18.13;9.23;;;;;;;-3.98;92.28;101818.13;5056574;28;20465;-73
2022/01/12 02:59:23;;;;;;;21.60;9.52;;;;;;;-4.07;92.46;101829.22;5056347;28;20098;-72
2022/01/12 03:02:20;;;;;;;21.60;9.98;;;;;;;-4.14;92.64;101822.13;5056005;28;20124;-73
2022/01/12 03:05:06;;;;;;;22.05;9.68;;;;;;;-4.10;92.13;101829.16;5055727;28;20378;-73
2022/01/12 03:07:37;;;;;;;20.58;9.57;;;;;;;-4.20;92.80;101825.44;5055926;28;20071;-74
2022/01/12 03:10:12;;;;;;;23.45;10.27;;;;;;;-4.25;92.96;101824.44;5038408;28;20128;-72
2022/01/12 03:12:42;;;;;;;20.17;9.93;;;;;;;-4.34;93.82;101832.91;5055893;28;20041;-71
2022/01/12 03:15:13;;;;;;;19.92;9.40;;;;;;;-4.20;93.24;101828.03;5056263;28;20068;-71
2022/01/12 03:17:41;;;;;;;19.42;9.45;;;;;;;-4.25;93.85;101834.84;5055728;28;20402;-70
2022/01/12 03:20:10;;;;;;;21.40;9.82;;;;;;;-4.34;94.01;101834.66;5038286;28;20060;-72
2022/01/12 03:22:39;;;;;;;17.00;9.43;;;;;;;-4.42;94.27;101839.66;5056248;28;20116;-71
2022/01/12 03:25:09;;;;;;;18.90;9.10;;;;;;;-4.39;94.23;101842.31;5056024;28;20045;-70
2022/01/12 03:27:39;;;;;;;20.45;9.52;;;;;;;-4.31;93.75;101839.91;5055984;28;20056;-71
2022/01/12 03:30:08;;;;;;;21.63;10.13;;;;;;;-4.50;94.68;101848.97;5055857;28;20107;-71
2022/01/12 03:32:42;;;;;;;18.92;9.35;;;;;;;-4.58;96.65;101844.41;5054117;28;20053;-72
2022/01/12 03:35:23;;;;;;;19.38;9.57;;;;;;;-4.69;97.33;101851.94;5055756;28;20547;-72
2022/01/12 03:38:20;;;;;;;20.48;9.63;;;;;;;-4.68;98.24;101849.38;5055432;28;20048;-73
2022/01/12 03:40:44;;;;;;;18.60;9.15;;;;;;;-4.74;98.21;101850.91;5054992;28;20052;-73
2022/01/12 03:43:13;;;;;;;20.98;9.57;;;;;;;-4.91;99.10;101853.94;5055692;28;20045;-71
2022/01/12 03:45:43;;;;;;;18.33;9.05;;;;;;;-4.98;100.00;101839.00;5055244;28;20448;-75
2022/01/12 03:48:11;;;;;;;19.60;9.68;;;;;;;-5.02;100.00;101837.16;5055524;28;20124;-71
2022/01/12 03:50:39;;;;;;;21.42;10.07;;;;;;;-4.96;100.00;101839.03;5055385;28;20136;-71
2022/01/12 03:53:08;;;;;;;18.33;9.02;;;;;;;-4.94;100.00;101845.16;5055325;28;20473;-72
2022/01/12 03:55:36;;;;;;;18.77;9.02;;;;;;;-4.72;100.00;101847.53;5055325;28;20048;-71
2022/01/12 03:58:06;;;;;;;19.63;9.15;;;;;;;-4.58;100.00;101849.63;5037352;28;20045;-72
2022/01/12 04:00:34;;;;;;;23.70;10.55;;;;;;;-4.57;100.00;101853.97;5054853;28;20408;-72
2022/01/12 04:03:04;;;;;;;17.63;8.98;;;;;;;-4.69;100.00;101845.00;5054784;28;20052;-69
2022/01/12 04:08:18;;;;;;;23.27;9.75;;;;;;;-4.68;100.00;101851.09;5055169;28;20477;-69
2022/01/12 04:08:27;;;;;;;19.52;9.48;;;;;;;-4.66;100.00;101854.59;5055197;28;20045;-72
2022/01/12 04:11:00;;;;;;;22.77;9.57;;;;;;;-4.67;100.00;101845.91;5054612;28;20045;-71
2022/01/12 04:13:31;;;;;;;17.60;9.20;;;;;;;-4.68;100.00;101838.94;5054999;28;20044;-70
2022/01/12 04:16:03;;;;;;;20.83;10.27;;;;;;;-4.79;100.00;101845.59;5055816;28;20076;-70
2022/01/12 04:18:31;;;;;;;20.05;9.50;;;;;;;-4.90;100.00;101847.03;5055048;28;20068;-70
2022/01/12 04:21:02;;;;;;;21.92;9.75;;;;;;;-4.82;100.00;101840.31;5036827;28;20088;-69
2022/01/12 04:23:31;;;;;;;20.98;9.52;;;;;;;-4.95;100.00;101838.19;5054827;28;20045;-69
2022/01/12 04:26:01;;;;;;;21.63;9.65;;;;;;;-4.97;100.00;101842.47;5054337;28;20128;-67
2022/01/12 04:28:32;;;;;;;22.35;10.05;;;;;;;-5.12;100.00;101845.50;5055648;28;20397;-68
2022/01/12 04:31:00;;;;;;;19.65;10.23;;;;;;;-5.20;100.00;101849.63;5054111;28;20486;-68
2022/01/12 04:33:29;;;;;;;20.48;9.98;;;;;;;-5.31;100.00;101854.50;5054648;28;20543;-69
2022/01/12 04:35:58;;;;;;;18.52;10.20;;;;;;;-5.34;100.00;101858.72;5053879;28;20040;-68
2022/01/12 04:38:30;;;;;;;22.55;10.48;;;;;;;-5.27;100.00;101853.75;5054473;28;20045;-71
2022/01/12 04:40:58;;;;;;;23.73;11.02;;;;;;;-5.34;100.00;101849.22;5054272;28;20482;-68
2022/01/12 04:43:26;;;;;;;22.92;10.40;;;;;;;-5.23;100.00;101852.13;5054269;28;20397;-67
2022/01/12 04:48:55;;;;;;;21.30;9.98;;;;;;;-5.39;100.00;101865.53;5038702;28;20069;-68
2022/01/12 04:51:25;;;;;;;21.30;10.13;;;;;;;-5.52;100.00;101859.94;5054153;28;20071;-70
2022/01/12 04:53:54;;;;;;;20.00;9.40;;;;;;;-5.57;100.00;101868.44;5053877;28;20095;-70
2022/01/12 04:56:30;;;;;;;23.63;10.40;;;;;;;-5.61;100.00;101874.38;5053845;28;20037;-69
2022/01/12 04:58:59;;;;;;;26.50;10.52;;;;;;;-5.56;100.00;101876.28;5053777;28;20444;-70
2022/01/12 05:01:35;;;;;;;24.48;10.30;;;;;;;-5.53;100.00;101868.56;5054168;28;20122;-67
2022/01/12 05:07:11;;;;;;;20.67;10.40;;;;;;;-5.58;100.00;101874.47;5053577;28;20071;-70
2022/01/12 05:09:51;;;;;;;20.67;9.85;;;;;;;-5.59;100.00;101877.91;5053813;28;20115;-69
2022/01/12 05:15:12;;;;;;;23.98;10.82;;;;;;;-5.63;100.00;101883.84;5053464;28;20102;-70
2022/01/12 05:17:42;;;;;;;23.52;11.07;;;;;;;-5.56;100.00;101888.41;5053810;28;20086;-71
2022/01/12 05:20:11;;;;;;;21.60;10.90;;;;;;;-5.25;100.00;101885.91;5053313;28;20087;-70
2022/01/12 05:22:39;;;;;;;22.58;10.93;;;;;;;-5.49;100.00;101891.25;5053583;28;20037;-70
2022/01/12 05:25:08;;;;;;;21.90;10.75;;;;;;;-5.52;100.00;101891.13;5053246;28;20076;-70
2022/01/12 05:27:36;;;;;;;24.73;11.05;;;;;;;-5.41;100.00;101888.84;5053290;28;20401;-70
2022/01/12 05:30:05;;;;;;;21.48;10.82;;;;;;;-5.30;100.00;101887.50;5052955;28;20439;-71
2022/01/12 05:32:35;;;;;;;21.42;10.57;;;;;;;-5.25;100.00;101879.81;5053078;28;20048;-70
2022/01/12 05:35:06;;;;;;;22.23;10.32;;;;;;;-5.22;100.00;101885.97;5052757;28;20095;-69
2022/01/12 05:37:35;;;;;;;21.67;10.30;;;;;;;-5.19;100.00;101883.50;5053132;28;20041;-68
2022/01/12 05:40:05;;;;;;;21.52;11.15;;;;;;;-5.35;100.00;101883.84;5052950;28;20552;-70
2022/01/12 05:42:34;;;;;;;29.73;13.02;;;;;;;-5.53;100.00;101888.50;5035473;28;20442;-68
2022/01/12 05:45:04;;;;;;;25.50;12.07;;;;;;;-5.58;100.00;101890.09;5052869;28;20451;-71
2022/01/12 05:49:33;;;;;;;24.23;11.93;;;;;;;-5.62;100.00;101893.41;5052870;28;20499;-69
2022/01/12 05:50:25;;;;;;;24.23;12.43;;;;;;;-5.58;100.00;101901.38;5053149;28;20041;-68
2022/01/12 05:52:53;;;;;;;24.08;11.68;;;;;;;-5.39;100.00;101896.75;5052689;28;20128;-69
2022/01/12 05:55:23;;;;;;;22.48;10.63;;;;;;;-5.42;100.00;101907.03;5034322;28;20052;-69
2022/01/12 05:57:51;;;;;;;25.52;11.18;;;;;;;-5.23;100.00;101911.94;5053058;28;20040;-77
2022/01/12 06:00:24;;;;;;;24.40;10.85;;;;;;;-5.21;100.00;101903.38;5053157;28;20077;-71
2022/01/12 06:02:52;;;;;;;20.58;10.93;;;;;;;-5.56;100.00;101915.28;5053021;28;20091;-70
2022/01/12 06:05:22;;;;;;;24.17;11.77;;;;;;;-5.62;100.00;101920.28;5052932;28;20392;-69
2022/01/12 06:07:52;;;;;;;24.35;11.65;;;;;;;-5.54;100.00;101917.94;5053009;28;20486;-68
2022/01/12 06:10:23;;;;;;;21.05;10.48;;;;;;;-5.73;100.00;101921.66;5052906;28;20063;-69
2022/01/12 06:12:52;;;;;;;21.70;10.95;;;;;;;-5.69;100.00;101918.34;5053076;28;20049;-69
2022/01/12 06:15:20;;;;;;;26.33;11.95;;;;;;;-5.65;100.00;101934.91;5052987;28;20048;-69
2022/01/12 06:17:48;;;;;;;19.35;10.20;;;;;;;-5.53;100.00;101940.50;5035356;28;20049;-69
2022/01/12 06:20:17;;;;;;;23.92;10.57;;;;;;;-5.54;100.00;101949.13;5052369;28;20114;-69
2022/01/12 06:22:45;;;;;;;25.70;11.65;;;;;;;-5.57;100.00;101944.72;5052935;28;20049;-69
2022/01/12 06:25:15;;;;;;;22.60;10.98;;;;;;;-5.67;100.00;101942.66;5052651;28;20411;-69
2022/01/12 06:27:51;;;;;;;25.42;11.70;;;;;;;-5.53;100.00;101948.28;5053024;28;20456;-69
2022/01/12 06:33:21;;;;;;;22.85;11.75;;;;;;;-5.64;100.00;101944.47;5010586;28;20137;-69
2022/01/12 06:35:50;;;;;;;29.05;12.63;;;;;;;-5.64;100.00;101947.06;5010809;28;20469;-69
2022/01/12 06:38:18;;;;;;;26.02;12.35;;;;;;;-5.61;100.00;101954.97;5029592;28;20560;-70
2022/01/12 06:40:47;;;;;;;22.90;11.02;;;;;;;-5.69;100.00;101946.94;5052748;28;20037;-69
2022/01/12 06:43:15;;;;;;;26.10;12.13;;;;;;;-5.57;100.00;101949.94;5052177;28;20048;-69
2022/01/12 06:45:44;;;;;;;22.27;11.82;;;;;;;-5.57;100.00;101951.66;5034564;28;20067;-70
2022/01/12 06:48:13;;;;;;;28.25;12.65;;;;;;;-5.53;100.00;101961.28;5052557;28;20037;-69
2022/01/12 06:50:41;;;;;;;23.33;11.23;;;;;;;-5.53;100.00;101959.56;5052440;28;20079;-68
2022/01/12 06:53:09;;;;;;;25.90;11.88;;;;;;;-5.62;100.00;101966.19;5052344;28;20428;-71
2022/01/12 06:55:38;;;;;;;25.88;11.65;;;;;;;-5.48;100.00;101970.16;5052304;28;20045;-72
2022/01/12 06:58:07;;;;;;;27.60;11.82;;;;;;;-5.51;100.00;101968.31;5056222;28;20051;-68
2022/01/12 07:00:36;;;;;;;23.60;11.88;;;;;;;-5.39;100.00;101973.03;5072823;28;20051;-71
2022/01/12 07:03:05;;;;;;;25.05;11.93;;;;;;;-5.39;100.00;101970.44;5072258;28;20393;-70
2022/01/12 07:05:33;;;;;;;27.83;11.88;;;;;;;-5.31;100.00;101963.75;5072539;28;20436;-70
2022/01/12 07:08:02;;;;;;;26.40;12.50;;;;;;;-5.40;100.00;101967.75;5074840;28;20043;-70
2022/01/12 07:10:30;;;;;;;23.55;11.70;;;;;;;-5.35;100.00;101964.50;5076024;28;20469;-70
2022/01/12 07:12:58;;;;;;;27.27;12.05;;;;;;;-5.26;100.00;101967.38;5075851;28;20052;-71
2022/01/12 07:15:30;;;;;;;24.60;12.05;;;;;;;-5.30;100.00;101972.44;5075767;28;20509;-70
2022/01/12 07:18:03;;;;;;;22.05;11.55;;;;;;;-5.41;100.00;101984.22;5075373;28;20036;-71
2022/01/12 07:20:31;;;;;;;26.90;12.60;;;;;;;-5.31;100.00;101981.94;5075992;28;20062;-70
2022/01/12 07:22:59;;;;;;;30.17;12.25;;;;;;;-5.21;100.00;101980.56;5057657;28;20048;-70
2022/01/12 07:25:30;;;;;;;25.45;12.18;;;;;;;-5.24;100.00;101990.84;5075681;28;20128;-67
2022/01/12 07:27:58;;;;;;;29.10;12.52;;;;;;;-5.19;100.00;101999.69;5075982;28;20049;-68
2022/01/12 07:30:27;;;;;;;26.48;12.23;;;;;;;-5.29;100.00;101998.50;5075696;28;20087;-69
2022/01/12 07:32:56;;;;;;;28.55;12.35;;;;;;;-5.24;100.00;102002.13;5075917;28;20061;-69
2022/01/12 07:35:27;;;;;;;24.80;11.95;;;;;;;-5.22;100.00;102009.97;5079031;28;20092;-69
2022/01/12 07:37:55;;;;;;;23.05;11.63;;;;;;;-5.14;100.00;102016.31;5075634;28;20040;-69
2022/01/12 07:40:24;;;;;;;38.92;12.70;;;;;;;-5.05;100.00;102003.59;5075270;28;20048;-71
2022/01/12 07:42:52;;;;;;;28.55;12.40;;;;;;;-5.13;100.00;102010.25;5075618;28;20068;-69
2022/01/12 07:45:20;;;;;;;27.05;13.02;;;;;;;-5.15;100.00;102005.84;5075128;28;20045;-71
2022/01/12 07:47:50;;;;;;;27.70;13.45;;;;;;;-5.34;100.00;102020.88;5075541;28;20051;-70
2022/01/12 07:50:18;;;;;;;30.17;13.27;;;;;;;-5.16;100.00;102019.72;5075190;28;20040;-69
2022/01/12 07:52:46;;;;;;;25.02;11.88;;;;;;;-4.98;100.00;102025.50;5075317;28;20127;-69
2022/01/12 07:55:15;;;;;;;31.40;14.45;;;;;;;-5.00;100.00;102027.16;5074956;28;20124;-70
2022/01/12 07:57:43;;;;;;;26.10;12.80;;;;;;;-4.96;100.00;102029.91;5075230;28;20040;-69
2022/01/12 08:00:12;;;;;;;27.90;12.63;;;;;;;-4.97;100.00;102032.47;5074915;28;20072;-70
2022/01/12 08:02:41;;;;;;;29.48;13.77;;;;;;;-4.88;100.00;102022.34;5075391;28;20440;-69
2022/01/12 08:05:12;;;;;;;27.40;13.75;;;;;;;-4.96;100.00;102029.91;5074931;28;20478;-70
2022/01/12 08:07:40;;;;;;;31.20;13.75;;;;;;;-4.89;100.00;102028.38;5075031;28;20044;-69
2022/01/12 08:10:10;;;;;;;26.65;13.73;;;;;;;-4.94;100.00;102023.00;5074859;28;20056;-71
2022/01/12 08:12:39;;;;;;;31.08;14.27;;;;;;;-4.83;100.00;102022.47;5075093;28;20094;-69
2022/01/12 08:15:09;;;;;;;28.15;14.05;;;;;;;-4.87;100.00;102026.72;5074683;28;20470;-71
2022/01/12 08:17:38;;;;;;;32.97;16.20;;;;;;;-4.84;100.00;102024.19;5074180;28;20049;-69
2022/01/12 08:20:11;;;;;;;33.38;14.75;;;;;;;-4.77;100.00;102025.25;5074337;28;20478;-69
2022/01/12 08:22:41;;;;;;;28.45;14.05;;;;;;;-4.66;100.00;102031.69;5074817;28;20053;-69
2022/01/12 08:25:10;;;;;;;30.80;14.35;;;;;;;-4.45;100.00;102039.22;5074533;28;20048;-69
2022/01/12 08:27:38;;;;;;;34.83;15.40;;;;;;;-4.25;100.00;102045.03;5074650;28;20051;-69
2022/01/12 08:30:16;;;;;;;33.90;14.77;;;;;;;-4.37;100.00;102053.38;5074438;28;20046;-70
2022/01/12 08:32:44;;;;;;;29.05;14.27;;;;;;;-4.28;100.00;102065.78;5074316;28;20095;-70
2022/01/12 08:35:13;;;;;;;31.90;14.98;;;;;;;-4.12;100.00;102068.88;5055843;28;20060;-69
2022/01/12 08:37:44;;;;;;;30.40;15.45;;;;;;;-4.22;100.00;102064.25;5074564;28;20049;-68
2022/01/12 08:40:14;;;;;;;29.00;14.95;;;;;;;-4.03;100.00;102070.88;5074234;28;20086;-70
2022/01/12 08:42:46;;;;;;;;;;;;;;;-4.07;100.00;102074.22;5074902;28;20044;-68
2022/01/12 08:45:16;;;;;;;27.23;13.25;;;;;;;-3.88;100.00;102070.41;5073804;28;19990;-70
2022/01/12 08:47:45;;;;;;;29.83;15.02;;;;;;;-3.83;100.00;102054.06;5074174;28;20052;-69
2022/01/12 08:50:14;;;;;;;29.63;14.43;;;;;;;-3.86;100.00;102053.06;5073934;28;20043;-70
2022/01/12 08:52:46;;;;;;;29.13;14.50;;;;;;;-3.94;100.00;102060.72;5074217;28;20071;-69
2022/01/12 08:55:16;;;;;;;31.85;14.02;;;;;;;-3.91;100.00;102066.00;5074059;28;20072;-70
2022/01/12 08:57:44;;;;;;;30.13;14.70;;;;;;;-3.89;100.00;102058.22;5074279;28;20048;-70
2022/01/12 09:00:14;;;;;;;31.38;15.27;;;;;;;-3.88;100.00;102050.44;5073789;28;20072;-70
2022/01/12 09:02:42;;;;;;;30.92;15.13;;;;;;;-3.77;100.00;102053.31;5074300;28;20059;-69
2022/01/12 09:05:13;;;;;;;30.13;14.95;;;;;;;-3.64;100.00;102057.16;5073783;28;20094;-70
2022/01/12 09:07:42;;;;;;;33.28;15.30;;;;;;;-3.56;100.00;102059.13;5073856;28;20052;-70
2022/01/12 09:10:12;;;;;;;29.60;14.23;;;;;;;-3.51;100.00;102052.28;5073632;28;20482;-71
2022/01/12 09:12:40;;;;;;;29.70;14.40;;;;;;;-3.36;100.00;102046.59;5073874;28;20055;-69
2022/01/12 09:15:11;;;;;;;31.42;14.65;;;;;;;-3.55;100.00;102044.34;5073507;28;20094;-71
2022/01/12 09:17:40;;;;;;;32.75;15.00;;;;;;;-3.49;100.00;102050.59;5073812;28;20438;-69
2022/01/12 09:20:10;;;;;;;35.35;14.70;;;;;;;-3.54;100.00;102047.00;5073057;28;20094;-70
2022/01/12 09:22:38;;;;;;;34.88;16.08;;;;;;;-3.65;100.00;102038.03;5073773;28;20044;-69
2022/01/12 09:25:08;;;;;;;30.92;15.48;;;;;;;-3.53;100.00;102043.53;5073676;28;20058;-69
2022/01/12 09:27:38;;;;;;;29.88;14.65;;;;;;;-3.48;100.00;102046.25;5073563;28;20036;-70
2022/01/12 09:30:09;;;;;;;33.17;16.05;;;;;;;-3.21;100.00;102043.47;5073150;28;20072;-69
2022/01/12 09:32:37;;;;;;;33.28;15.13;;;;;;;-3.17;100.00;102047.94;5073648;28;20136;-69
2022/01/12 09:35:08;;;;;;;27.13;14.13;;;;;;;-3.09;100.00;102046.34;5073447;28;20041;-69
2022/01/12 09:37:39;;;;;;;29.58;14.00;;;;;;;-3.14;100.00;102047.13;5073527;28;20055;-69
2022/01/12 09:40:09;;;;;;;32.22;16.42;;;;;;;-3.14;100.00;102049.72;5073410;28;20037;-69
2022/01/12 09:42:39;;;;;;;30.42;15.77;;;;;;;-3.13;100.00;102047.16;5073279;28;20040;-69
2022/01/12 09:45:14;;;;;;;33.88;15.35;;;;;;;-3.15;100.00;102035.78;5073454;28;20060;-70
2022/01/12 09:47:43;;;;;;;33.45;15.70;;;;;;;-3.19;100.00;102046.97;5073207;28;20102;-69
2022/01/12 09:50:12;;;;;;;28.95;14.20;;;;;;;-3.01;100.00;102044.81;5072640;28;20045;-69
2022/01/12 09:52:40;;;;;;;31.38;15.32;;;;;;;-3.02;100.00;102053.50;5073199;28;20044;-69
2022/01/12 09:55:09;;;;;;;33.05;15.70;;;;;;;-3.32;100.00;102043.19;5073209;28;20055;-69
2022/01/12 09:57:42;;;;;;;31.25;15.50;;;;;;;-3.25;100.00;102052.06;5073537;28;20044;-69
2022/01/12 10:00:12;;;;;;;29.25;14.05;;;;;;;-2.92;100.00;102050.25;5073093;28;20041;-76
2022/01/12 10:02:43;;;;;;;27.38;14.23;;;;;;;-2.83;100.00;102048.72;5073306;28;20040;-69
2022/01/12 10:05:12;;;;;;;29.25;13.95;;;;;;;-2.74;100.00;102048.94;5072963;28;20078;-75
2022/01/12 10:07:40;;;;;;;25.98;13.30;;;;;;;-2.80;100.00;102051.38;5072802;28;20167;-69
2022/01/12 10:10:10;;;;;;;24.25;12.38;;;;;;;-2.65;99.19;102046.53;5073087;28;20094;-69
2022/01/12 10:12:39;;;;;;;29.23;13.48;;;;;;;-2.58;99.00;102037.97;5072979;28;20053;-69
2022/01/12 10:15:11;;;;;;;25.58;12.25;;;;;;;-2.63;98.73;102047.44;5072971;28;20481;-69
2022/01/12 10:17:41;;;;;;;26.00;12.20;;;;;;;-2.56;98.40;102048.47;5073072;28;20044;-68
2022/01/12 10:20:12;;;;;;;25.73;12.65;;;;;;;-2.45;96.86;102040.00;5073015;28;20036;-70
2022/01/12 10:22:45;;;;;;;32.50;12.57;;;;;;;-2.44;96.22;102036.53;5073125;28;20048;-69
2022/01/12 10:25:18;;;;;;;27.85;13.30;;;;;;;-2.49;97.33;102037.31;5072529;28;20044;-72
2022/01/12 10:27:46;;;;;;;;;;;;;;;-2.32;94.96;102049.88;5073345;28;20044;-69
2022/01/12 10:30:22;;;;;;;35.30;12.80;;;;;;;-2.17;94.91;102049.31;5072580;28;19927;-69
2022/01/12 10:33:02;;;;;;;27.00;12.88;;;;;;;-2.14;94.83;102038.00;5072915;28;20048;-70
2022/01/12 10:35:33;;;;;;;26.80;13.05;;;;;;;-2.11;93.82;102045.94;5072427;28;20045;-69
2022/01/12 10:38:09;;;;;;;28.58;13.50;;;;;;;-2.03;94.01;102036.47;5073040;28;20094;-69
2022/01/12 10:40:45;;;;;;;28.92;13.32;;;;;;;-2.11;94.27;102032.88;5073245;28;20049;-70
2022/01/12 10:43:34;;;;;;;31.92;13.00;;;;;;;-2.19;94.33;102032.72;5076366;28;20048;-76
2022/01/12 10:46:06;;;;;;;29.80;13.65;;;;;;;-2.00;93.56;102036.56;5076636;28;20476;-69
2022/01/12 10:48:45;;;;;;;28.67;13.23;;;;;;;-1.98;92.87;102036.59;5076173;28;20045;-70
2022/01/12 10:51:16;;;;;;;28.50;13.95;;;;;;;-1.94;93.52;102041.91;5076594;28;20389;-69
2022/01/12 10:53:45;;;;;;;28.65;12.75;;;;;;;-1.92;93.18;102034.09;5076166;28;20052;-70
2022/01/12 10:56:17;;;;;;;24.05;12.68;;;;;;;-1.96;93.47;102034.88;5075825;28;20052;-70
2022/01/12 10:58:48;;;;;;;30.25;13.52;;;;;;;-1.86;93.33;102031.59;5076654;28;20040;-69
2022/01/12 11:01:21;;;;;;;29.42;13.43;;;;;;;-2.06;94.45;102031.22;5076062;28;20056;-71
2022/01/12 11:03:50;;;;;;;28.77;13.25;;;;;;;-2.06;94.76;102025.97;5076372;28;20370;-69
2022/01/12 11:06:19;;;;;;;24.65;13.13;;;;;;;-1.79;92.78;102017.78;5076043;28;20083;-71
2022/01/12 11:08:50;;;;;;;29.90;13.05;;;;;;;-1.71;91.75;102021.44;5075920;28;20060;-69
2022/01/12 11:11:19;;;;;;;25.75;12.15;;;;;;;-1.78;91.11;102025.66;5075656;28;20041;-69
2022/01/12 11:13:50;;;;;;;26.45;11.43;;;;;;;-1.53;89.89;102026.09;5076201;28;20037;-70
2022/01/12 11:16:22;;;;;;;25.55;11.95;;;;;;;-1.56;88.74;102028.66;5075530;28;20045;-71
2022/01/12 11:18:52;;;;;;;26.80;12.82;;;;;;;-1.73;89.93;102031.00;5075772;28;20037;-70
2022/01/12 11:21:29;;;;;;;28.45;12.43;;;;;;;-1.69;90.76;102026.69;5075704;28;20068;-70
2022/01/12 11:23:58;;;;;;;32.78;13.45;;;;;;;-1.59;90.83;102034.72;5076094;28;20513;-69
2022/01/12 11:26:29;;;;;;;34.13;13.77;;;;;;;-1.58;90.98;102030.38;5075409;28;20044;-69
2022/01/12 11:28:58;;;;;;;31.10;14.82;;;;;;;-1.70;90.70;102027.53;5075777;28;20510;-69
2022/01/12 11:31:31;;;;;;;30.65;13.85;;;;;;;-1.65;90.74;102021.50;5075352;28;20063;-69
2022/01/12 11:34:00;;;;;;;30.73;13.68;;;;;;;-1.46;90.69;102026.22;5075876;28;20041;-69
2022/01/12 11:36:35;;;;;;;30.70;14.23;;;;;;;-1.45;90.12;102027.09;5075528;28;20049;-69
2022/01/12 11:39:05;;;;;;;29.63;14.15;;;;;;;-1.39;90.02;102021.97;5075632;28;20037;-69
2022/01/12 11:41:37;;;;;;;31.77;14.98;;;;;;;-1.53;90.47;102018.25;5075477;28;20450;-69
2022/01/12 11:44:07;;;;;;;30.33;14.18;;;;;;;-1.60;91.93;102016.38;5075718;28;20064;-69
2022/01/12 11:46:45;;;;;;;28.30;13.77;;;;;;;-1.42;90.37;102019.31;5075338;28;20044;-69
2022/01/12 11:49:26;;;;;;;29.40;13.80;;;;;;;-1.53;90.68;102019.13;5075230;28;20064;-69
2022/01/12 11:51:55;;;;;;;30.23;14.43;;;;;;;-1.71;92.27;102015.31;5075005;28;20424;-71
2022/01/12 11:54:31;;;;;;;31.20;15.02;;;;;;;-1.42;91.06;102014.09;5074540;28;20040;-68
2022/01/12 11:57:01;;;;;;;29.35;13.68;;;;;;;-1.30;90.38;102008.16;5075118;28;20044;-70
2022/01/12 11:59:31;;;;;;;34.35;14.68;;;;;;;-1.54;92.14;102006.03;5075066;28;20049;-69
2022/01/12 12:02:11;;;;;;;32.72;14.63;;;;;;;-1.56;91.89;101999.84;5075469;28;20033;-70
2022/01/12 12:04:39;;;;;;;30.60;14.98;;;;;;;-1.52;91.53;101999.97;5074979;28;20062;-70
2022/01/12 12:07:10;;;;;;;28.27;14.15;;;;;;;-1.35;89.64;102002.88;5075023;28;20044;-70
2022/01/12 12:09:41;;;;;;;33.10;14.98;;;;;;;-1.27;90.59;101998.59;5074658;28;20508;-69
2022/01/12 12:12:13;;;;;;;35.22;15.95;;;;;;;-1.42;91.78;102000.13;5075129;28;20048;-69
2022/01/12 12:14:45;;;;;;;27.67;13.07;;;;;;;-1.09;88.93;101990.16;5074862;28;20425;-69
2022/01/12 12:17:15;;;;;;;29.92;13.73;;;;;;;-1.00;88.21;101992.91;5075103;28;20289;-69
2022/01/12 12:19:44;;;;;;;29.75;12.77;;;;;;;-1.03;87.52;101989.38;5074700;28;20075;-69
2022/01/12 12:22:15;;;;;;;29.33;12.50;;;;;;;-1.13;87.36;101992.72;5074794;28;20544;-69
2022/01/12 12:24:46;;;;;;;24.80;12.18;;;;;;;-1.00;86.27;101995.53;5074435;28;20055;-70